AFR1241 TFFR-TNCM
Flight info
| Callsign | AFR1241 |
|---|---|
| Flight time | 0h 29m |
| Altitude | 26000 |
| Route | BIMBO2F BIMBO A517 SKB DCT ZPATA DCT UMANA |
| Aircraft | A320/M-SDE3FGHIRWY/LB1 |
Departure
| Time | 2026-04-26 18:32 |
|---|---|
| Airport | Maryse Condé International Airport (TFFR) |
Arrival
| Time | 2026-04-26 19:01 |
|---|---|
| Airport | Princess Juliana International Airport (TNCM) |
| Time | Latitude | Longitude | Altitude | Speed | Heading |
|---|---|---|---|---|---|
| 2026-04-26 18:17 | 16.26920 | -61.52672 | 21 ft | 0 kts | 10° |
| 2026-04-26 18:23 | 16.26915 | -61.52673 | 21 ft | 2 kts | 10° |
| 2026-04-26 18:23 | 16.26896 | -61.52677 | 21 ft | 3 kts | 7° |
| 2026-04-26 18:23 | 16.26875 | -61.52679 | 23 ft | 3 kts | 5° |
| 2026-04-26 18:23 | 16.26855 | -61.52680 | 22 ft | 3 kts | 360° |
| 2026-04-26 18:24 | 16.26835 | -61.52679 | 25 ft | 3 kts | 349° |
| 2026-04-26 18:24 | 16.26817 | -61.52674 | 25 ft | 3 kts | 316° |
| 2026-04-26 18:24 | 16.26809 | -61.52664 | 23 ft | 1 kts | 282° |
| 2026-04-26 18:24 | 16.26809 | -61.52660 | 23 ft | 0 kts | 282° |
| 2026-04-26 18:26 | 16.26809 | -61.52661 | 23 ft | 0 kts | 282° |
| 2026-04-26 18:26 | 16.26810 | -61.52669 | 22 ft | 3 kts | 281° |
| 2026-04-26 18:26 | 16.26816 | -61.52697 | 21 ft | 5 kts | 281° |
| 2026-04-26 18:26 | 16.26825 | -61.52743 | 23 ft | 8 kts | 281° |
| 2026-04-26 18:27 | 16.26836 | -61.52804 | 21 ft | 9 kts | 281° |
| 2026-04-26 18:27 | 16.26848 | -61.52870 | 21 ft | 9 kts | 280° |
| 2026-04-26 18:27 | 16.26823 | -61.52928 | 22 ft | 10 kts | 215° |
| 2026-04-26 18:27 | 16.26743 | -61.52949 | 21 ft | 15 kts | 191° |
| 2026-04-26 18:28 | 16.26628 | -61.52972 | 21 ft | 17 kts | 191° |
| 2026-04-26 18:28 | 16.26529 | -61.52996 | 20 ft | 12 kts | 210° |
| 2026-04-26 18:28 | 16.26513 | -61.53091 | 20 ft | 19 kts | 282° |
| 2026-04-26 18:28 | 16.26543 | -61.53258 | 19 ft | 28 kts | 279° |
| 2026-04-26 18:29 | 16.26583 | -61.53482 | 22 ft | 34 kts | 281° |
| 2026-04-26 18:29 | 16.26633 | -61.53744 | 21 ft | 39 kts | 282° |
| 2026-04-26 18:29 | 16.26687 | -61.54034 | 18 ft | 42 kts | 280° |
| 2026-04-26 18:29 | 16.26742 | -61.54327 | 15 ft | 40 kts | 282° |
| 2026-04-26 18:30 | 16.26792 | -61.54597 | 12 ft | 37 kts | 280° |
| 2026-04-26 18:30 | 16.26849 | -61.54727 | 14 ft | 12 kts | 321° |
| 2026-04-26 18:30 | 16.26852 | -61.54770 | 15 ft | 3 kts | 201° |
| 2026-04-26 18:30 | 16.26834 | -61.54764 | 15 ft | 5 kts | 137° |
| 2026-04-26 18:31 | 16.26815 | -61.54723 | 14 ft | 7 kts | 102° |
| 2026-04-26 18:31 | 16.26814 | -61.54718 | 14 ft | 0 kts | 101° |
| 2026-04-26 18:31 | 16.26810 | -61.54696 | 13 ft | 13 kts | 101° |
| 2026-04-26 18:31 | 16.26740 | -61.54335 | 15 ft | 86 kts | 101° |
| 2026-04-26 18:32 | 16.26590 | -61.53519 | 23 ft | 140 kts | 101° |
| 2026-04-26 18:32 | 16.26389 | -61.52408 | 357 ft | 160 kts | 102° |
| 2026-04-26 18:32 | 16.26205 | -61.51349 | 988 ft | 160 kts | 103° |
| 2026-04-26 18:33 | 16.26106 | -61.50794 | 1309 ft | 160 kts | 105° |
| 2026-04-26 18:33 | 16.25896 | -61.49667 | 2038 ft | 157 kts | 107° |
| 2026-04-26 18:33 | 16.25686 | -61.48544 | 2645 ft | 159 kts | 104° |
| 2026-04-26 18:33 | 16.25479 | -61.47411 | 3328 ft | 160 kts | 103° |
| 2026-04-26 18:34 | 16.25576 | -61.46191 | 3760 ft | 185 kts | 73° |
| 2026-04-26 18:34 | 16.26382 | -61.45046 | 4113 ft | 213 kts | 43° |
| 2026-04-26 18:34 | 16.27829 | -61.44403 | 4355 ft | 246 kts | 9° |
| 2026-04-26 18:34 | 16.29633 | -61.44308 | 4732 ft | 272 kts | 3° |
| 2026-04-26 18:35 | 16.31603 | -61.44346 | 5251 ft | 290 kts | 356° |
| 2026-04-26 18:35 | 16.33614 | -61.44626 | 6154 ft | 293 kts | 351° |
| 2026-04-26 18:35 | 16.35637 | -61.45015 | 6983 ft | 297 kts | 348° |
| 2026-04-26 18:35 | 16.37674 | -61.45447 | 7780 ft | 302 kts | 348° |
| 2026-04-26 18:36 | 16.39744 | -61.45879 | 8583 ft | 305 kts | 348° |
| 2026-04-26 18:36 | 16.41830 | -61.46289 | 9436 ft | 307 kts | 348° |
| 2026-04-26 18:36 | 16.43970 | -61.46684 | 10234 ft | 310 kts | 349° |
| 2026-04-26 18:36 | 16.46133 | -61.47072 | 10816 ft | 321 kts | 348° |
| 2026-04-26 18:37 | 16.48381 | -61.47492 | 11269 ft | 336 kts | 346° |
| 2026-04-26 18:37 | 16.50624 | -61.48314 | 11587 ft | 351 kts | 327° |
| 2026-04-26 18:37 | 16.52528 | -61.49981 | 11801 ft | 367 kts | 309° |
| 2026-04-26 18:37 | 16.53974 | -61.52191 | 12347 ft | 371 kts | 296° |
| 2026-04-26 18:38 | 16.54954 | -61.54684 | 13006 ft | 373 kts | 285° |
| 2026-04-26 18:38 | 16.55489 | -61.57334 | 13681 ft | 375 kts | 280° |
| 2026-04-26 18:38 | 16.55979 | -61.60012 | 14300 ft | 377 kts | 280° |
| 2026-04-26 18:38 | 16.56493 | -61.62702 | 14888 ft | 379 kts | 280° |
| 2026-04-26 18:39 | 16.57016 | -61.65408 | 15442 ft | 382 kts | 280° |
| 2026-04-26 18:39 | 16.57540 | -61.68136 | 15989 ft | 385 kts | 280° |
| 2026-04-26 18:39 | 16.58060 | -61.70887 | 16524 ft | 388 kts | 280° |
| 2026-04-26 18:39 | 16.58577 | -61.73659 | 17050 ft | 391 kts | 279° |
| 2026-04-26 18:40 | 16.59092 | -61.76461 | 17567 ft | 394 kts | 279° |
| 2026-04-26 18:40 | 16.59606 | -61.79275 | 18083 ft | 397 kts | 279° |
| 2026-04-26 18:40 | 16.60125 | -61.82110 | 18556 ft | 399 kts | 279° |
| 2026-04-26 18:40 | 16.60647 | -61.84960 | 18990 ft | 402 kts | 279° |
| 2026-04-26 18:41 | 16.61171 | -61.87826 | 19407 ft | 405 kts | 279° |
| 2026-04-26 18:41 | 16.61700 | -61.90724 | 19827 ft | 407 kts | 279° |
| 2026-04-26 18:41 | 16.62343 | -61.93610 | 20226 ft | 412 kts | 286° |
| 2026-04-26 18:41 | 16.63477 | -61.96372 | 20622 ft | 418 kts | 296° |
| 2026-04-26 18:42 | 16.65111 | -61.98892 | 21005 ft | 424 kts | 307° |
| 2026-04-26 18:42 | 16.67086 | -62.01202 | 21379 ft | 428 kts | 309° |
| 2026-04-26 18:42 | 16.69082 | -62.03516 | 21759 ft | 431 kts | 309° |
| 2026-04-26 18:42 | 16.71090 | -62.05851 | 22133 ft | 434 kts | 309° |
| 2026-04-26 18:43 | 16.73112 | -62.08208 | 22503 ft | 437 kts | 309° |
| 2026-04-26 18:43 | 16.75146 | -62.10579 | 22867 ft | 440 kts | 309° |
| 2026-04-26 18:43 | 16.77192 | -62.12967 | 23224 ft | 443 kts | 309° |
| 2026-04-26 18:43 | 16.79248 | -62.15373 | 23570 ft | 445 kts | 309° |
| 2026-04-26 18:44 | 16.81315 | -62.17794 | 23867 ft | 448 kts | 309° |
| 2026-04-26 18:44 | 16.83422 | -62.20259 | 24177 ft | 449 kts | 309° |
| 2026-04-26 18:44 | 16.85504 | -62.22691 | 24497 ft | 450 kts | 309° |
| 2026-04-26 18:44 | 16.87595 | -62.25137 | 24818 ft | 452 kts | 309° |
| 2026-04-26 18:45 | 16.89687 | -62.27586 | 25138 ft | 453 kts | 308° |
| 2026-04-26 18:45 | 16.91783 | -62.30047 | 25462 ft | 454 kts | 308° |
| 2026-04-26 18:45 | 16.93883 | -62.32514 | 25768 ft | 455 kts | 308° |
| 2026-04-26 18:45 | 16.95992 | -62.34985 | 25965 ft | 456 kts | 308° |
| 2026-04-26 18:46 | 16.98117 | -62.37470 | 26008 ft | 461 kts | 308° |
| 2026-04-26 18:46 | 17.00258 | -62.39975 | 26012 ft | 464 kts | 308° |
| 2026-04-26 18:46 | 17.02408 | -62.42494 | 26015 ft | 464 kts | 308° |
| 2026-04-26 18:46 | 17.04554 | -62.45010 | 26019 ft | 464 kts | 308° |
| 2026-04-26 18:47 | 17.06704 | -62.47534 | 25982 ft | 466 kts | 308° |
| 2026-04-26 18:47 | 17.08860 | -62.50071 | 25232 ft | 467 kts | 308° |
| 2026-04-26 18:47 | 17.11011 | -62.52605 | 24532 ft | 464 kts | 308° |
| 2026-04-26 18:47 | 17.13147 | -62.55116 | 24178 ft | 460 kts | 308° |
| 2026-04-26 18:48 | 17.15273 | -62.57616 | 23037 ft | 464 kts | 308° |
| 2026-04-26 18:48 | 17.17428 | -62.60155 | 21975 ft | 466 kts | 308° |
| 2026-04-26 18:48 | 17.19566 | -62.62670 | 21282 ft | 460 kts | 309° |
| 2026-04-26 18:48 | 17.21677 | -62.65153 | 20567 ft | 455 kts | 309° |
| 2026-04-26 18:49 | 17.23768 | -62.67614 | 19877 ft | 450 kts | 309° |
| 2026-04-26 18:49 | 17.25834 | -62.70047 | 19209 ft | 445 kts | 309° |
| 2026-04-26 18:49 | 17.27903 | -62.72434 | 18570 ft | 441 kts | 313° |
| 2026-04-26 18:49 | 17.30244 | -62.74490 | 17911 ft | 439 kts | 323° |
| 2026-04-26 18:50 | 17.32880 | -62.76077 | 17315 ft | 435 kts | 332° |
| 2026-04-26 18:50 | 17.35594 | -62.77426 | 16754 ft | 428 kts | 332° |
| 2026-04-26 18:50 | 17.38258 | -62.78755 | 16221 ft | 421 kts | 332° |
| 2026-04-26 18:50 | 17.40881 | -62.80070 | 15682 ft | 415 kts | 332° |
| 2026-04-26 18:51 | 17.43467 | -62.81370 | 15143 ft | 410 kts | 332° |
| 2026-04-26 18:51 | 17.46038 | -62.82711 | 14599 ft | 404 kts | 328° |
| 2026-04-26 18:51 | 17.48321 | -62.84377 | 14071 ft | 397 kts | 318° |
| 2026-04-26 18:51 | 17.50323 | -62.86348 | 13482 ft | 394 kts | 314° |
| 2026-04-26 18:52 | 17.52283 | -62.88329 | 12901 ft | 389 kts | 314° |
| 2026-04-26 18:52 | 17.53572 | -62.89627 | 12522 ft | 387 kts | 314° |
| 2026-04-26 18:52 | 17.56160 | -62.92222 | 11734 ft | 383 kts | 314° |
| 2026-04-26 18:52 | 17.57436 | -62.93500 | 11329 ft | 382 kts | 314° |
| 2026-04-26 18:53 | 17.59958 | -62.96036 | 10964 ft | 366 kts | 314° |
| 2026-04-26 18:53 | 17.61155 | -62.97241 | 10890 ft | 356 kts | 314° |
| 2026-04-26 18:53 | 17.62904 | -62.99002 | 10766 ft | 341 kts | 314° |
| 2026-04-26 18:53 | 17.64584 | -63.00693 | 10647 ft | 328 kts | 314° |
| 2026-04-26 18:54 | 17.66200 | -63.02323 | 10527 ft | 317 kts | 314° |
| 2026-04-26 18:54 | 17.67758 | -63.03897 | 10400 ft | 306 kts | 314° |
| 2026-04-26 18:54 | 17.69272 | -63.05433 | 10198 ft | 300 kts | 314° |
| 2026-04-26 18:54 | 17.70768 | -63.06949 | 10089 ft | 299 kts | 314° |
| 2026-04-26 18:55 | 17.72264 | -63.08462 | 9874 ft | 300 kts | 314° |
| 2026-04-26 18:55 | 17.73776 | -63.09993 | 9417 ft | 301 kts | 314° |
| 2026-04-26 18:55 | 17.75277 | -63.11511 | 9055 ft | 299 kts | 314° |
| 2026-04-26 18:55 | 17.76773 | -63.13021 | 8641 ft | 298 kts | 315° |
| 2026-04-26 18:56 | 17.78336 | -63.14434 | 8329 ft | 295 kts | 328° |
| 2026-04-26 18:56 | 17.80188 | -63.15338 | 7973 ft | 294 kts | 343° |
| 2026-04-26 18:56 | 17.82174 | -63.15838 | 7583 ft | 293 kts | 346° |
| 2026-04-26 18:56 | 17.84142 | -63.16310 | 6978 ft | 287 kts | 346° |
| 2026-04-26 18:57 | 17.86076 | -63.16774 | 6123 ft | 284 kts | 347° |
| 2026-04-26 18:57 | 17.87376 | -63.17085 | 5534 ft | 282 kts | 347° |
| 2026-04-26 18:57 | 17.89906 | -63.17691 | 4440 ft | 276 kts | 347° |
| 2026-04-26 18:57 | 17.91754 | -63.18134 | 3639 ft | 270 kts | 348° |
| 2026-04-26 18:58 | 17.93572 | -63.18570 | 2859 ft | 265 kts | 348° |
| 2026-04-26 18:58 | 17.95365 | -63.19000 | 2252 ft | 267 kts | 348° |
| 2026-04-26 18:58 | 17.97141 | -63.19426 | 2117 ft | 256 kts | 349° |
| 2026-04-26 18:58 | 17.98837 | -63.19833 | 2018 ft | 244 kts | 348° |
| 2026-04-26 18:59 | 18.00464 | -63.20163 | 1906 ft | 228 kts | 356° |
| 2026-04-26 18:59 | 18.01988 | -63.20099 | 1780 ft | 212 kts | 17° |
| 2026-04-26 18:59 | 18.03152 | -63.19391 | 1633 ft | 183 kts | 57° |
| 2026-04-26 18:59 | 18.03478 | -63.18228 | 1387 ft | 158 kts | 96° |
| 2026-04-26 19:00 | 18.03396 | -63.17134 | 1108 ft | 146 kts | 96° |
| 2026-04-26 19:00 | 18.03427 | -63.16088 | 851 ft | 142 kts | 88° |
| 2026-04-26 19:00 | 18.03546 | -63.15073 | 641 ft | 138 kts | 89° |
| 2026-04-26 19:00 | 18.03642 | -63.14082 | 455 ft | 135 kts | 89° |
| 2026-04-26 19:01 | 18.03772 | -63.13108 | 291 ft | 134 kts | 84° |
| 2026-04-26 19:01 | 18.03915 | -63.12144 | 110 ft | 133 kts | 86° |
| 2026-04-26 19:01 | 18.04042 | -63.11215 | 29 ft | 115 kts | 81° |
| 2026-04-26 19:01 | 18.04124 | -63.10667 | 27 ft | 42 kts | 81° |
| 2026-04-26 19:02 | 18.04121 | -63.10504 | 27 ft | 13 kts | 104° |
| 2026-04-26 19:02 | 18.04139 | -63.10452 | 28 ft | 3 kts | 12° |
| 2026-04-26 19:02 | 18.04152 | -63.10500 | 28 ft | 14 kts | 261° |
| 2026-04-26 19:02 | 18.04134 | -63.10589 | 28 ft | 23 kts | 258° |
| 2026-04-26 19:03 | 18.04100 | -63.10832 | 27 ft | 26 kts | 262° |
| 2026-04-26 19:03 | 18.04073 | -63.11026 | 28 ft | 27 kts | 261° |
| 2026-04-26 19:03 | 18.04046 | -63.11214 | 28 ft | 20 kts | 261° |
| 2026-04-26 19:03 | 18.04063 | -63.11284 | 27 ft | 9 kts | 328° |
| 2026-04-26 19:04 | 18.04123 | -63.11295 | 28 ft | 7 kts | 353° |
| 2026-04-26 19:04 | 18.04180 | -63.11305 | 28 ft | 9 kts | 349° |
| 2026-04-26 19:04 | 18.04233 | -63.11326 | 29 ft | 8 kts | 323° |
| 2026-04-26 19:04 | 18.04272 | -63.11354 | 29 ft | 6 kts | 338° |
| 2026-04-26 19:05 | 18.04331 | -63.11364 | 29 ft | 0 kts | 351° |